Time;durP1;ratioP1;P1;durP2;ratioP2;P2;SDS_P1;SDS_P2;PMS_P1;PMS_P2;Temp;Humidity;BMP_temperature;BMP_pressure;BME280_temperature;BME280_humidity;BME280_pressure;Samples;Min_cycle;Max_cycle;Signal;HPM_P1;HPM_P2
2023/01/06 00:01:31;;;;;;;18.13;3.33;;;13.60;99.90;;;;;;5061292;28;20025;-76
2023/01/06 00:03:58;;;;;;;15.13;2.63;;;13.70;99.90;;;;;;5057341;28;20543;-76
2023/01/06 00:06:29;;;;;;;15.45;2.40;;;13.60;99.90;;;;;;5058324;28;20051;-75
2023/01/06 00:08:56;;;;;;;23.38;2.83;;;13.70;99.90;;;;;;5061324;28;20029;-75
2023/01/06 00:11:23;;;;;;;12.95;2.80;;;13.80;99.90;;;;;;5062821;28;20037;-75
2023/01/06 00:13:49;;;;;;;13.43;2.28;;;13.80;99.90;;;;;;5059298;28;20045;-74
2023/01/06 00:16:18;;;;;;;9.23;3.58;;;13.80;99.90;;;;;;5061127;28;20021;-74
2023/01/06 00:18:44;;;;;;;12.90;2.22;;;13.80;99.90;;;;;;5059135;28;20465;-74
2023/01/06 00:21:11;;;;;;;15.20;2.22;;;13.80;99.90;;;;;;5052204;28;20017;-74
2023/01/06 00:23:37;;;;;;;16.02;2.20;;;13.90;99.90;;;;;;5051870;28;20028;-74
2023/01/06 00:26:05;;;;;;;14.98;1.95;;;13.90;99.90;;;;;;5051606;28;20405;-74
2023/01/06 00:28:32;;;;;;;12.82;2.80;;;13.90;99.90;;;;;;5051453;28;20025;-73
2023/01/06 00:30:57;;;;;;;10.02;2.08;;;13.90;99.90;;;;;;5051464;28;20021;-73
2023/01/06 00:33:24;;;;;;;20.85;2.20;;;13.90;99.90;;;;;;5051556;28;20040;-73
2023/01/06 00:35:50;;;;;;;21.02;3.20;;;13.90;99.90;;;;;;5051637;28;20436;-72
2023/01/06 00:38:16;;;;;;;21.95;2.72;;;13.80;99.90;;;;;;5051524;28;20025;-74
2023/01/06 00:40:42;;;;;;;18.08;3.60;;;13.90;99.90;;;;;;5051372;28;20032;-72
2023/01/06 00:43:07;;;;;;;12.07;2.13;;;13.90;99.90;;;;;;5051578;28;20029;-72
2023/01/06 00:45:33;;;;;;;11.55;1.80;;;13.90;99.90;;;;;;5049853;28;20035;-72
2023/01/06 00:47:59;;;;;;;7.45;2.03;;;14.00;99.90;;;;;;5051499;28;20040;-73
2023/01/06 00:50:24;;;;;;;16.67;2.95;;;14.00;99.90;;;;;;5051518;28;20029;-73
2023/01/06 00:52:50;;;;;;;11.00;2.38;;;14.00;99.90;;;;;;5051808;28;20036;-73
2023/01/06 00:55:16;;;;;;;16.55;2.85;;;14.00;99.90;;;;;;5051503;28;20481;-73
2023/01/06 00:57:43;;;;;;;8.15;2.53;;;14.00;99.90;;;;;;5050512;28;20477;-72
2023/01/06 01:00:09;;;;;;;18.02;2.67;;;14.00;99.90;;;;;;5049799;28;20029;-73
2023/01/06 01:02:35;;;;;;;13.88;2.15;;;14.00;99.90;;;;;;5049838;28;20025;-74
2023/01/06 01:05:01;;;;;;;9.82;1.88;;;14.00;99.90;;;;;;5051286;28;20354;-73
2023/01/06 01:07:26;;;;;;;10.57;2.15;;;14.00;99.90;;;;;;5050996;28;20025;-77
2023/01/06 01:09:52;;;;;;;10.25;2.67;;;13.80;99.90;;;;;;5051077;28;20056;-76
2023/01/06 01:12:18;;;;;;;15.90;2.03;;;13.70;99.90;;;;;;5051209;28;20017;-77
2023/01/06 01:14:49;;;;;;;13.13;2.75;;;13.60;1.00;;;;;;5051001;28;20057;-76
2023/01/06 01:17:20;;;;;;;10.53;1.70;;;13.60;1.00;;;;;;5051151;28;20025;-76
2023/01/06 01:19:47;;;;;;;14.57;1.80;;;13.60;2.30;;;;;;5051146;28;20671;-75
2023/01/06 01:22:13;;;;;;;13.82;2.50;;;13.60;1.00;;;;;;5050920;28;20482;-74
2023/01/06 01:24:39;;;;;;;17.10;2.85;;;13.70;1.00;;;;;;5051392;28;20033;-75
2023/01/06 01:27:05;;;;;;;21.92;2.60;;;13.80;99.90;;;;;;5051174;28;20021;-74
2023/01/06 01:29:31;;;;;;;15.70;3.15;;;13.80;99.90;;;;;;5056887;28;20033;-74
2023/01/06 01:31:57;;;;;;;19.27;2.83;;;13.80;99.90;;;;;;5055494;28;20028;-74
2023/01/06 01:34:23;;;;;;;17.10;2.13;;;13.80;99.90;;;;;;5050997;28;20032;-74
2023/01/06 01:36:51;;;;;;;18.70;3.40;;;13.80;99.90;;;;;;5050736;28;20028;-74
2023/01/06 01:39:18;;;;;;;14.80;1.90;;;13.90;99.90;;;;;;5051036;28;20029;-74
2023/01/06 01:41:44;;;;;;;17.52;3.10;;;13.90;99.90;;;;;;5050941;28;20021;-74
2023/01/06 01:44:48;;;;;;;16.05;2.15;;;13.90;99.90;;;;;;5049551;28;20025;-72
2023/01/06 01:47:23;;;;;;;14.38;3.28;;;13.90;99.90;;;;;;5050767;28;20032;-74
2023/01/06 01:49:52;;;;;;;9.50;3.10;;;14.00;99.90;;;;;;5049988;28;20409;-74
2023/01/06 01:52:19;;;;;;;10.73;2.67;;;14.00;99.90;;;;;;5053585;28;20075;-76
2023/01/06 01:54:46;;;;;;;18.17;1.88;;;14.00;99.90;;;;;;5054846;28;20033;-76
2023/01/06 01:57:18;;;;;;;16.50;2.63;;;13.80;99.90;;;;;;5053496;28;20032;-75
2023/01/06 01:59:44;;;;;;;;;;;13.80;99.90;;;;;;5055361;28;20036;-76
2023/01/06 02:02:12;;;;;;;15.93;3.50;;;13.70;99.90;;;;;;5054694;28;19958;-76
2023/01/06 02:04:42;;;;;;;22.80;3.10;;;13.70;99.90;;;;;;5054554;28;20637;-76
2023/01/06 02:07:08;;;;;;;15.13;2.42;;;13.70;99.90;;;;;;5054425;28;20044;-75
2023/01/06 02:09:57;;;;;;;7.95;2.15;;;13.70;99.90;;;;;;5054381;28;20045;-76
2023/01/06 02:12:23;;;;;;;16.63;2.20;;;13.70;99.90;;;;;;5054334;28;20054;-76
2023/01/06 02:14:49;;;;;;;7.97;1.95;;;13.70;99.90;;;;;;5054222;28;20124;-75
2023/01/06 02:17:42;;;;;;;13.52;2.47;;;13.70;99.90;;;;;;5054153;28;20493;-74
2023/01/06 02:20:28;;;;;;;17.85;2.58;;;13.60;99.90;;;;;;5054308;28;20025;-75
2023/01/06 02:23:24;;;;;;;21.63;3.70;;;13.60;99.90;;;;;;5054167;28;20051;-74
2023/01/06 02:26:21;;;;;;;21.95;3.72;;;13.60;1.00;;;;;;5054050;28;20021;-76
2023/01/06 02:29:17;;;;;;;25.42;3.92;;;13.70;1.00;;;;;;5052407;28;20060;-75
2023/01/06 02:32:23;;;;;;;11.85;2.53;;;13.50;28.70;;;;;;5053885;28;20036;-73
2023/01/06 02:35:08;;;;;;;19.48;4.45;;;13.40;99.90;;;;;;5048677;28;20397;-75
2023/01/06 02:37:59;;;;;;;14.25;1.88;;;13.60;99.90;;;;;;5053728;28;20021;-76
2023/01/06 02:40:33;;;;;;;6.40;2.00;;;13.80;99.90;;;;;;5053627;28;20025;-75
2023/01/06 02:43:23;;;;;;;14.45;2.55;;;13.70;99.90;;;;;;5053721;28;20021;-73
2023/01/06 02:46:08;;;;;;;16.10;3.03;;;13.80;99.90;;;;;;5052141;28;20032;-75
2023/01/06 02:48:43;;;;;;;20.48;3.17;;;13.90;99.90;;;;;;5053491;28;20040;-76
2023/01/06 02:51:21;;;;;;;20.88;3.13;;;13.80;99.90;;;;;;5053373;28;20048;-77
2023/01/06 02:53:58;;;;;;;21.90;4.72;;;13.70;99.90;;;;;;5051969;28;20063;-76
2023/01/06 02:56:30;;;;;;;19.98;2.95;;;13.80;99.90;;;;;;5053165;28;20485;-76
2023/01/06 02:59:04;;;;;;;18.77;2.33;;;13.90;99.90;;;;;;5053329;28;20067;-74
2023/01/06 03:01:34;;;;;;;12.95;3.00;;;13.90;99.90;;;;;;5053415;28;20021;-76
2023/01/06 03:04:04;;;;;;;31.90;3.97;;;13.90;99.90;;;;;;5053142;28;20028;-75
2023/01/06 03:06:32;;;;;;;20.33;2.67;;;13.80;99.90;;;;;;5052965;28;20025;-73
2023/01/06 03:08:59;;;;;;;21.20;4.18;;;13.90;99.90;;;;;;5052684;28;20170;-73
2023/01/06 03:11:27;;;;;;;15.93;2.08;;;13.90;99.90;;;;;;5052964;28;20029;-74
2023/01/06 03:14:07;;;;;;;13.13;2.28;;;13.80;99.90;;;;;;5053073;28;20107;-73
2023/01/06 03:16:33;;;;;;;16.52;2.90;;;13.90;99.90;;;;;;5053199;28;20106;-72
2023/01/06 03:18:59;;;;;;;15.02;3.42;;;13.90;99.90;;;;;;5051708;28;20474;-72
2023/01/06 03:21:30;;;;;;;22.33;2.28;;;13.90;99.90;;;;;;5053180;28;20616;-73
2023/01/06 03:23:56;;;;;;;21.27;3.45;;;13.90;99.90;;;;;;5052960;28;20021;-72
2023/01/06 03:26:24;;;;;;;15.60;2.40;;;13.80;99.90;;;;;;5051343;28;20435;-72
2023/01/06 03:28:50;;;;;;;30.63;3.35;;;13.90;99.90;;;;;;5052552;28;20028;-72
2023/01/06 03:31:28;;;;;;;20.40;3.10;;;13.80;99.90;;;;;;5052661;28;20438;-73
2023/01/06 03:34:09;;;;;;;16.73;1.98;;;13.80;99.90;;;;;;5053133;28;20021;-73
2023/01/06 03:36:46;;;;;;;9.40;2.65;;;13.80;99.90;;;;;;5056053;28;20036;-71
2023/01/06 03:39:15;;;;;;;25.10;3.67;;;13.80;99.90;;;;;;5052754;28;20020;-72
2023/01/06 03:44:43;;;;;;;14.80;2.00;;;13.70;99.90;;;;;;5052657;28;20060;-73
2023/01/06 03:47:30;;;;;;;19.60;2.58;;;13.60;99.90;;;;;;5051138;28;20116;-72
2023/01/06 03:50:05;;;;;;;20.58;3.33;;;13.60;99.90;;;;;;5052424;28;20033;-72
2023/01/06 03:52:36;;;;;;;13.98;3.13;;;13.50;99.90;;;;;;5052215;28;20020;-72
2023/01/06 03:55:04;;;;;;;17.25;3.28;;;13.40;99.90;;;;;;5052405;28;20066;-71
2023/01/06 03:57:36;;;;;;;23.45;2.80;;;13.40;99.90;;;;;;5052023;28;20058;-71
2023/01/06 04:00:07;;;;;;;24.80;3.88;;;13.30;99.90;;;;;;5052136;28;20033;-72
2023/01/06 04:02:36;;;;;;;22.70;4.33;;;13.20;99.90;;;;;;5052046;28;20029;-73
2023/01/06 04:05:15;;;;;;;23.45;3.17;;;13.10;99.90;;;;;;5050671;28;20021;-73
2023/01/06 04:07:41;;;;;;;27.58;3.47;;;13.10;99.90;;;;;;5051856;28;20124;-72
2023/01/06 04:10:09;;;;;;;28.73;4.80;;;13.10;99.90;;;;;;5051868;28;20481;-73
2023/01/06 04:12:37;;;;;;;25.13;3.75;;;13.10;66.60;;;;;;5052091;28;20021;-72
2023/01/06 04:15:09;;;;;;;28.05;3.50;;;13.00;99.90;;;;;;5051788;28;20045;-72
2023/01/06 04:17:36;;;;;;;32.97;4.20;;;13.00;99.90;;;;;;5051745;28;20470;-72
2023/01/06 04:20:03;;;;;;;28.40;3.67;;;12.90;99.90;;;;;;5051079;28;20148;-72
2023/01/06 04:22:29;;;;;;;35.58;3.75;;;12.90;97.50;;;;;;5051918;28;20024;-73
2023/01/06 04:24:54;;;;;;;21.08;3.38;;;12.80;99.90;;;;;;5051748;28;20092;-72
2023/01/06 04:27:20;;;;;;;13.25;3.10;;;12.80;99.90;;;;;;5051466;28;20033;-73
2023/01/06 04:29:46;;;;;;;25.88;4.63;;;12.80;99.90;;;;;;5051168;28;20043;-74
2023/01/06 04:32:11;;;;;;;9.88;2.42;;;12.80;99.90;;;;;;5051607;28;20025;-72
2023/01/06 04:34:37;;;;;;;21.27;3.20;;;12.60;99.90;;;;;;5051575;28;20095;-72
2023/01/06 04:37:03;;;;;;;16.88;2.90;;;12.60;99.90;;;;;;5051384;28;20096;-72
2023/01/06 04:39:28;;;;;;;35.50;3.30;;;12.60;99.90;;;;;;5051607;28;20055;-72
2023/01/06 04:41:54;;;;;;;21.08;2.58;;;12.50;99.90;;;;;;5051378;28;20096;-72
2023/01/06 04:44:20;;;;;;;26.58;3.35;;;12.40;99.90;;;;;;5051357;28;20465;-72
2023/01/06 04:46:45;;;;;;;21.20;3.20;;;12.40;99.90;;;;;;5051268;28;20025;-71
2023/01/06 04:49:11;;;;;;;37.65;6.05;;;12.30;99.90;;;;;;5051198;28;20482;-72
2023/01/06 04:51:37;;;;;;;25.70;3.88;;;12.30;99.90;;;;;;5051354;28;20021;-72
2023/01/06 04:54:03;;;;;;;33.75;4.00;;;12.20;99.90;;;;;;5051210;28;20067;-73
2023/01/06 04:56:29;;;;;;;22.80;2.45;;;12.20;99.90;;;;;;5050865;28;20049;-73
2023/01/06 04:58:55;;;;;;;24.90;2.53;;;12.10;99.90;;;;;;5051051;28;20044;-72
2023/01/06 05:01:22;;;;;;;22.08;2.22;;;12.00;99.90;;;;;;5051304;28;20420;-70
2023/01/06 05:03:48;;;;;;;26.75;2.53;;;11.90;99.90;;;;;;5051260;28;20025;-72
2023/01/06 05:06:14;;;;;;;29.10;3.25;;;11.80;99.90;;;;;;5051271;28;20029;-71
2023/01/06 05:08:41;;;;;;;17.52;2.35;;;11.60;99.90;;;;;;5049680;28;20040;-73
2023/01/06 05:11:13;;;;;;;18.45;2.90;;;11.50;99.90;;;;;;5051195;28;20377;-72
2023/01/06 05:13:39;;;;;;;17.08;2.03;;;11.30;99.90;;;;;;5050890;28;20049;-72
2023/01/06 05:16:15;;;;;;;18.90;1.85;;;11.30;99.90;;;;;;5051193;28;20032;-73
2023/01/06 05:18:41;;;;;;;13.52;1.40;;;11.20;99.90;;;;;;5050166;28;20128;-73
2023/01/06 05:21:07;;;;;;;6.22;1.13;;;11.20;99.90;;;;;;5053385;28;20104;-72
2023/01/06 05:23:32;;;;;;;11.82;1.10;;;11.10;99.90;;;;;;5054449;28;20031;-72
2023/01/06 05:25:58;;;;;;;4.78;0.90;;;11.00;99.90;;;;;;5049094;28;20021;-72
2023/01/06 05:28:24;;;;;;;7.57;1.15;;;11.00;99.90;;;;;;5053886;28;22623;-72
2023/01/06 05:30:49;;;;;;;17.48;1.52;;;10.30;99.90;;;;;;5051966;28;20055;-72
2023/01/06 05:33:15;;;;;;;8.45;0.95;;;10.80;99.90;;;;;;5054982;28;20055;-71
2023/01/06 05:35:41;;;;;;;11.40;2.00;;;10.70;99.90;;;;;;5056125;28;20025;-73
2023/01/06 05:38:06;;;;;;;7.93;1.63;;;10.50;99.90;;;;;;5056820;28;20029;-73
2023/01/06 05:40:34;;;;;;;9.40;1.20;;;10.40;99.90;;;;;;5056434;28;20064;-72
2023/01/06 05:42:59;;;;;;;3.13;0.93;;;10.20;99.90;;;;;;5062106;28;20138;-72
2023/01/06 05:45:25;;;;;;;5.97;0.77;;;10.10;99.90;;;;;;5064919;28;20472;-72
2023/01/06 05:47:51;;;;;;;5.20;1.25;;;10.10;99.90;;;;;;5070316;28;20029;-74
2023/01/06 05:50:17;;;;;;;3.05;1.08;;;9.90;99.90;;;;;;5055820;28;20092;-74
2023/01/06 05:52:43;;;;;;;3.38;0.70;;;9.80;99.90;;;;;;5060168;28;20017;-73
2023/01/06 05:55:09;;;;;;;2.40;0.70;;;9.80;99.90;;;;;;5074690;28;20039;-73
2023/01/06 05:57:36;;;;;;;3.72;0.68;;;9.70;99.90;;;;;;5073237;28;20054;-74
2023/01/06 06:00:04;;;;;;;2.72;0.47;;;9.60;99.90;;;;;;5064080;28;20083;-73
2023/01/06 06:02:30;;;;;;;2.45;0.40;;;9.60;99.90;;;;;;5051676;28;20465;-73
2023/01/06 06:04:56;;;;;;;7.00;0.63;;;9.50;99.90;;;;;;5053622;28;20029;-73
2023/01/06 06:07:22;;;;;;;2.00;0.40;;;9.40;99.90;;;;;;5054204;28;20092;-74
2023/01/06 06:09:47;;;;;;;0.70;0.40;;;9.40;99.90;;;;;;5054665;28;20047;-74
2023/01/06 06:12:13;;;;;;;5.15;0.80;;;9.40;99.90;;;;;;5054665;28;20535;-73
2023/01/06 06:14:39;;;;;;;1.33;0.43;;;9.40;99.90;;;;;;5054292;28;20159;-72
2023/01/06 06:17:04;;;;;;;1.20;0.50;;;9.30;99.90;;;;;;5066622;28;20031;-73
2023/01/06 06:19:30;;;;;;;0.65;0.38;;;9.50;99.90;;;;;;5056577;28;20100;-74
2023/01/06 06:21:55;;;;;;;0.77;0.50;;;9.60;99.90;;;;;;5073576;28;20481;-73
2023/01/06 06:24:21;;;;;;;4.13;0.82;;;9.60;99.90;;;;;;5054543;28;20622;-72
2023/01/06 06:26:47;;;;;;;7.63;0.80;;;9.60;99.90;;;;;;5067085;28;20528;-72
2023/01/06 06:29:12;;;;;;;7.50;1.00;;;9.60;99.90;;;;;;5070448;28;20582;-73
2023/01/06 06:31:38;;;;;;;12.63;1.05;;;9.80;99.90;;;;;;5062383;28;20021;-73
2023/01/06 06:34:04;;;;;;;11.65;1.75;;;9.80;99.90;;;;;;5069061;28;20123;-73
2023/01/06 06:36:30;;;;;;;5.45;1.35;;;9.90;99.90;;;;;;5053655;28;20028;-73
2023/01/06 06:38:56;;;;;;;1.67;0.98;;;9.90;99.90;;;;;;5056821;28;20090;-72
2023/01/06 06:41:23;;;;;;;11.38;1.50;;;10.00;99.90;;;;;;5066213;28;20655;-72
2023/01/06 06:43:50;;;;;;;13.25;1.58;;;9.90;99.90;;;;;;5071287;28;20025;-71
2023/01/06 06:46:17;;;;;;;13.88;3.25;;;9.90;99.90;;;;;;5071979;28;20021;-73
2023/01/06 06:48:43;;;;;;;7.57;1.95;;;10.00;99.90;;;;;;5073476;28;20072;-72
2023/01/06 06:51:15;;;;;;;6.53;1.35;;;10.00;99.90;;;;;;5071766;28;20071;-74
2023/01/06 06:53:42;;;;;;;8.93;1.10;;;10.00;99.90;;;;;;5073501;28;20056;-72
2023/01/06 06:56:09;;;;;;;11.27;1.40;;;9.90;99.90;;;;;;5073500;28;20461;-73
2023/01/06 06:58:36;;;;;;;10.23;1.63;;;10.10;99.90;;;;;;5071181;28;20029;-73
2023/01/06 07:01:05;;;;;;;7.32;1.15;;;10.10;99.90;;;;;;5073241;28;20016;-71
2023/01/06 07:03:31;;;;;;;6.72;1.52;;;10.10;99.90;;;;;;5073270;28;20056;-72
2023/01/06 07:05:58;;;;;;;9.02;1.30;;;10.10;99.90;;;;;;5070635;28;20098;-73
2023/01/06 07:08:24;;;;;;;9.77;1.42;;;10.10;99.90;;;;;;5073155;28;20024;-73
2023/01/06 07:10:50;;;;;;;7.43;1.27;;;10.10;99.90;;;;;;5071638;28;20032;-71
2023/01/06 07:13:16;;;;;;;8.93;1.17;;;10.10;99.90;;;;;;5071284;28;20074;-72
2023/01/06 07:15:42;;;;;;;19.17;1.95;;;10.20;99.90;;;;;;5072025;28;20032;-72
2023/01/06 07:18:08;;;;;;;7.65;1.40;;;10.10;99.90;;;;;;5060898;28;20029;-73
2023/01/06 07:20:35;;;;;;;11.73;1.52;;;10.10;99.90;;;;;;5052751;28;20029;-73
2023/01/06 07:23:02;;;;;;;14.77;2.13;;;10.00;99.90;;;;;;5053065;28;20018;-73
2023/01/06 07:25:28;;;;;;;5.05;0.93;;;9.90;99.90;;;;;;5052930;28;20028;-73
2023/01/06 07:27:58;;;;;;;13.02;3.60;;;9.90;99.90;;;;;;5055286;28;20041;-73
2023/01/06 07:30:25;;;;;;;6.60;1.05;;;10.00;99.90;;;;;;5052842;28;20470;-72
2023/01/06 07:32:51;;;;;;;5.03;0.75;;;10.00;99.90;;;;;;5052614;28;20079;-72
2023/01/06 07:35:18;;;;;;;8.18;1.25;;;9.90;99.90;;;;;;5052289;28;20068;-72
2023/01/06 07:37:44;;;;;;;2.95;1.02;;;9.90;99.90;;;;;;5052895;28;20016;-72
2023/01/06 07:40:10;;;;;;;12.65;1.50;;;9.80;99.90;;;;;;5058120;28;20029;-73
2023/01/06 07:42:36;;;;;;;8.75;1.80;;;9.80;99.90;;;;;;5063220;28;20405;-73
2023/01/06 07:45:03;;;;;;;10.35;1.70;;;9.80;99.90;;;;;;5073291;28;20025;-72
2023/01/06 07:47:28;;;;;;;3.92;1.17;;;9.70;99.90;;;;;;5071784;28;20115;-72
2023/01/06 07:49:54;;;;;;;14.77;1.50;;;9.80;99.90;;;;;;5073329;28;20120;-72
2023/01/06 07:52:20;;;;;;;7.82;1.42;;;9.70;99.90;;;;;;5071749;28;20470;-73
2023/01/06 07:54:45;;;;;;;9.10;1.33;;;9.70;99.90;;;;;;5055845;28;20067;-73
2023/01/06 07:57:11;;;;;;;6.70;1.85;;;9.70;99.90;;;;;;5065571;28;20022;-73
2023/01/06 07:59:37;;;;;;;23.42;3.63;;;9.80;99.90;;;;;;5066718;28;20082;-74
2023/01/06 08:02:02;;;;;;;31.13;5.60;;;10.10;1.00;;;;;;5075263;28;20037;-73
2023/01/06 08:04:28;;;;;;;34.38;5.00;;;10.30;1.00;;;;;;5077649;28;20020;-73
2023/01/06 08:06:54;;;;;;;16.95;2.40;;;10.30;1.00;;;;;;5070601;28;20029;-73
2023/01/06 08:09:20;;;;;;;11.98;2.08;;;10.10;1.00;;;;;;5081416;28;20028;-74
2023/01/06 08:11:45;;;;;;;9.45;2.47;;;10.00;1.00;;;;;;5066124;28;20056;-71
2023/01/06 08:14:11;;;;;;;18.20;4.25;;;10.00;1.00;;;;;;5056108;28;20186;-73
2023/01/06 08:16:38;;;;;;;21.27;4.00;;;10.00;1.00;;;;;;5059170;28;20029;-72
2023/01/06 08:19:04;;;;;;;16.42;5.03;;;10.10;1.00;;;;;;5070813;28;20093;-72
2023/01/06 08:21:30;;;;;;;44.00;16.70;;;10.20;1.00;;;;;;5068586;28;20108;-73
2023/01/06 08:23:55;;;;;;;39.47;13.73;;;10.40;1.00;;;;;;5062024;28;20029;-72
2023/01/06 08:26:21;;;;;;;25.52;5.65;;;10.50;22.20;;;;;;5052490;28;20393;-73
2023/01/06 08:28:47;;;;;;;28.23;6.47;;;10.60;19.70;;;;;;5050236;28;20120;-72
2023/01/06 08:31:16;;;;;;;14.45;5.45;;;10.50;1.00;;;;;;5051677;28;20029;-73
2023/01/06 08:33:42;;;;;;;24.90;8.40;;;10.40;1.00;;;;;;5050372;28;20056;-73
2023/01/06 08:36:11;;;;;;;20.42;6.95;;;10.50;3.20;;;;;;5051535;28;20542;-72
2023/01/06 08:38:36;;;;;;;16.38;4.60;;;10.50;7.60;;;;;;5051444;28;20055;-73
2023/01/06 08:41:03;;;;;;;9.13;3.22;;;10.60;8.90;;;;;;5051297;28;20021;-74
2023/01/06 08:43:30;;;;;;;11.90;3.20;;;10.70;30.60;;;;;;5051417;28;20127;-73
2023/01/06 08:46:00;;;;;;;29.73;8.90;;;10.80;47.30;;;;;;5051346;28;20599;-73
2023/01/06 08:48:26;;;;;;;24.90;6.03;;;11.10;67.10;;;;;;5051287;28;20094;-72
2023/01/06 08:50:52;;;;;;;25.67;9.23;;;11.20;72.60;;;;;;5051308;28;20035;-73
2023/01/06 08:53:18;;;;;;;36.08;9.73;;;11.30;72.30;;;;;;5051268;28;20108;-73
2023/01/06 08:55:44;;;;;;;43.20;14.93;;;11.40;69.30;;;;;;5051165;28;20125;-72
2023/01/06 08:58:10;;;;;;;61.42;18.35;;;11.40;61.90;;;;;;5051168;28;20049;-73
2023/01/06 09:00:40;;;;;;;38.38;12.32;;;11.50;47.70;;;;;;5050977;28;20490;-73
2023/01/06 09:03:05;;;;;;;32.35;10.27;;;11.60;20.80;;;;;;5050967;28;20111;-73
2023/01/06 09:05:31;;;;;;;23.27;7.18;;;11.60;1.00;;;;;;5050996;28;20068;-72
2023/01/06 09:07:57;;;;;;;40.55;12.32;;;11.60;1.00;;;;;;5050939;28;20542;-74
2023/01/06 09:10:24;;;;;;;59.63;18.73;;;11.60;99.90;;;;;;5054557;28;20056;-73
2023/01/06 09:12:49;;;;;;;43.70;14.43;;;11.70;99.90;;;;;;5068662;28;20054;-70
2023/01/06 09:15:15;;;;;;;35.08;9.23;;;11.70;99.90;;;;;;5070666;28;20107;-70
2023/01/06 09:17:41;;;;;;;30.27;9.40;;;11.80;99.90;;;;;;5070781;28;20028;-70
2023/01/06 09:20:07;;;;;;;28.98;5.93;;;11.80;99.90;;;;;;5064630;28;20036;-71
2023/01/06 09:22:33;;;;;;;32.58;7.00;;;11.80;99.90;;;;;;5050783;28;20471;-70
2023/01/06 09:24:58;;;;;;;30.45;8.20;;;11.80;99.90;;;;;;5050475;28;20063;-70
2023/01/06 09:27:24;;;;;;;48.30;9.48;;;11.80;99.90;;;;;;5053139;28;20373;-71
2023/01/06 09:29:50;;;;;;;40.97;5.97;;;11.80;99.90;;;;;;5059351;28;20028;-70
2023/01/06 09:32:16;;;;;;;30.17;6.00;;;11.80;99.90;;;;;;5070325;28;20017;-70
2023/01/06 09:34:41;;;;;;;35.90;7.63;;;11.90;99.90;;;;;;5063743;28;20036;-69
2023/01/06 09:37:07;;;;;;;33.03;7.00;;;11.90;99.90;;;;;;5059774;28;20219;-70
2023/01/06 09:39:33;;;;;;;27.90;7.75;;;11.80;93.10;;;;;;5062631;28;20436;-70
2023/01/06 09:42:05;;;;;;;29.63;7.00;;;11.80;79.80;;;;;;5056494;28;20036;-69
2023/01/06 09:44:42;;;;;;;51.90;10.40;;;11.80;65.10;;;;;;5069100;28;20039;-70
2023/01/06 09:47:12;;;;;;;33.80;7.75;;;11.90;36.10;;;;;;5055562;28;20144;-70
2023/01/06 09:49:56;;;;;;;28.75;5.63;;;11.90;25.50;;;;;;5051283;28;20117;-70
2023/01/06 09:52:54;;;;;;;28.05;5.15;;;11.90;10.00;;;;;;5055853;28;20108;-70
2023/01/06 09:55:35;;;;;;;18.73;2.28;;;12.00;1.00;;;;;;5067944;28;20570;-71
2023/01/06 09:58:07;;;;;;;8.07;1.47;;;12.00;1.00;;;;;;5070579;28;20025;-68
2023/01/06 10:00:36;;;;;;;6.90;1.00;;;12.00;1.00;;;;;;5062693;28;20025;-68
2023/01/06 10:03:02;;;;;;;7.45;0.98;;;11.90;1.00;;;;;;5070315;28;20035;-68
2023/01/06 10:05:59;;;;;;;14.35;2.97;;;12.00;1.00;;;;;;5062700;28;20476;-69
2023/01/06 10:08:58;;;;;;;12.02;2.22;;;12.00;1.00;;;;;;5050942;28;20108;-71
2023/01/06 10:11:49;;;;;;;20.77;1.90;;;12.00;1.00;;;;;;5050387;28;20516;-69
2023/01/06 10:14:39;;;;;;;19.67;1.88;;;12.10;1.00;;;;;;5058949;28;20077;-70
2023/01/06 10:17:29;;;;;;;9.63;2.03;;;12.10;1.00;;;;;;5050619;28;20043;-70
2023/01/06 10:20:26;;;;;;;10.48;1.55;;;12.20;1.00;;;;;;5053804;28;20512;-70
2023/01/06 10:23:02;;;;;;;9.57;1.40;;;12.30;1.00;;;;;;5062698;28;20027;-69
2023/01/06 10:25:43;;;;;;;10.95;2.28;;;12.30;99.90;;;;;;5068984;28;20025;-71
2023/01/06 10:28:15;;;;;;;12.80;1.88;;;12.40;99.90;;;;;;5052671;28;20677;-69
2023/01/06 10:30:49;;;;;;;11.80;2.05;;;12.40;99.90;;;;;;5054911;28;20033;-70
2023/01/06 10:33:24;;;;;;;9.68;1.30;;;12.30;99.90;;;;;;5072846;28;20025;-69
2023/01/06 10:35:51;;;;;;;12.38;1.30;;;12.30;99.90;;;;;;5073943;28;20025;-69
2023/01/06 10:38:26;;;;;;;9.27;1.30;;;12.40;99.90;;;;;;5062418;28;20496;-69
2023/01/06 10:40:52;;;;;;;7.70;1.13;;;12.40;99.90;;;;;;5061191;28;20104;-68
2023/01/06 10:43:22;;;;;;;6.18;1.17;;;12.40;99.90;;;;;;5053367;28;20041;-70
2023/01/06 10:45:49;;;;;;;10.20;3.55;;;12.40;99.90;;;;;;5053644;28;20116;-70
2023/01/06 10:48:22;;;;;;;9.15;1.13;;;12.50;99.90;;;;;;5054822;28;20480;-68
2023/01/06 10:50:48;;;;;;;10.32;1.27;;;12.40;99.90;;;;;;5056694;28;20521;-69
2023/01/06 10:53:14;;;;;;;8.77;1.23;;;12.50;99.90;;;;;;5064061;28;20031;-68
2023/01/06 10:55:48;;;;;;;7.65;1.00;;;12.60;99.90;;;;;;5073439;28;20369;-69
2023/01/06 10:58:46;;;;;;;9.98;1.05;;;12.70;99.90;;;;;;5054631;28;20476;-68
2023/01/06 11:01:16;;;;;;;7.05;1.25;;;13.00;99.90;;;;;;5051791;28;20115;-69
2023/01/06 11:03:43;;;;;;;8.70;1.25;;;13.10;99.90;;;;;;5053145;28;20028;-68
2023/01/06 11:06:26;;;;;;;5.88;1.02;;;13.10;99.90;;;;;;5051832;28;20057;-68
2023/01/06 11:08:52;;;;;;;10.77;1.48;;;13.10;99.90;;;;;;5056479;28;20037;-68
2023/01/06 11:11:19;;;;;;;10.20;1.33;;;13.30;99.90;;;;;;5052379;28;20021;-67
2023/01/06 11:13:48;;;;;;;8.13;1.60;;;13.40;99.90;;;;;;5072811;28;20049;-68
2023/01/06 11:16:51;;;;;;;17.73;1.60;;;13.50;99.90;;;;;;5072172;28;20024;-69
2023/01/06 11:19:30;;;;;;;14.05;1.70;;;13.60;99.90;;;;;;5059967;28;20037;-68
2023/01/06 11:21:55;;;;;;;9.07;1.45;;;13.60;99.90;;;;;;5072720;28;20082;-68
2023/01/06 11:24:26;;;;;;;6.68;1.52;;;13.70;99.90;;;;;;5064432;28;20427;-68
2023/01/06 11:27:12;;;;;;;8.00;1.27;;;13.90;99.90;;;;;;5057520;28;20034;-68
2023/01/06 11:29:38;;;;;;;7.63;0.95;;;14.00;99.90;;;;;;5070317;28;20128;-68
2023/01/06 11:32:22;;;;;;;7.65;1.83;;;14.10;99.90;;;;;;5065012;28;20096;-68
2023/01/06 11:34:55;;;;;;;12.68;1.77;;;14.30;99.90;;;;;;5052470;28;20040;-68
2023/01/06 11:37:41;;;;;;;5.47;1.00;;;14.40;99.90;;;;;;5053857;28;20021;-69
2023/01/06 11:40:23;;;;;;;10.35;1.45;;;14.50;99.90;;;;;;5061633;28;20024;-69
2023/01/06 11:42:55;;;;;;;11.63;1.55;;;14.30;99.90;;;;;;5069729;28;20068;-67
2023/01/06 11:45:52;;;;;;;18.97;1.40;;;14.40;99.90;;;;;;5071274;28;20115;-69
2023/01/06 11:48:19;;;;;;;12.55;1.42;;;14.40;99.90;;;;;;5069646;28;20036;-68
2023/01/06 11:51:03;;;;;;;8.57;1.23;;;14.40;99.90;;;;;;5071216;28;20036;-68
2023/01/06 11:53:29;;;;;;;4.90;1.17;;;14.40;99.90;;;;;;5072109;28;20074;-68
2023/01/06 11:56:02;;;;;;;14.40;1.83;;;14.40;99.90;;;;;;5072056;28;20500;-68
2023/01/06 11:58:38;;;;;;;8.65;1.38;;;14.50;99.90;;;;;;5072216;28;20063;-68
2023/01/06 12:01:23;;;;;;;12.40;1.65;;;14.40;99.90;;;;;;5060950;28;20036;-68
2023/01/06 12:03:51;;;;;;;6.43;0.95;;;14.30;99.90;;;;;;5054344;28;20032;-68
2023/01/06 12:06:32;;;;;;;11.25;1.88;;;14.10;99.90;;;;;;5052040;28;20096;-68
2023/01/06 12:09:25;;;;;;;8.75;1.30;;;13.90;99.90;;;;;;5054782;28;20036;-68
2023/01/06 12:11:52;;;;;;;11.07;2.03;;;13.90;99.90;;;;;;5051834;28;20025;-68
2023/01/06 12:14:20;;;;;;;10.23;1.25;;;13.80;99.90;;;;;;5056721;28;20135;-68
2023/01/06 12:16:56;;;;;;;10.30;1.23;;;13.90;99.90;;;;;;5061071;28;20025;-68
2023/01/06 12:19:46;;;;;;;9.60;1.23;;;13.90;99.90;;;;;;5055083;28;20369;-68
2023/01/06 12:22:46;;;;;;;7.72;0.88;;;13.90;99.90;;;;;;5056414;28;20033;-68
2023/01/06 12:25:32;;;;;;;9.55;1.00;;;13.90;99.90;;;;;;5051561;28;20025;-69
2023/01/06 12:28:21;;;;;;;9.88;1.20;;;13.90;99.90;;;;;;5052394;28;20060;-66
2023/01/06 12:31:20;;;;;;;8.27;1.45;;;13.80;99.90;;;;;;5062458;28;20028;-69
2023/01/06 12:34:01;;;;;;;5.95;0.98;;;13.60;99.90;;;;;;5051768;28;20048;-69
2023/01/06 12:36:47;;;;;;;4.28;1.00;;;13.60;99.90;;;;;;5070041;28;20024;-68
2023/01/06 12:39:26;;;;;;;6.75;0.80;;;13.50;99.90;;;;;;5055398;28;20115;-68
2023/01/06 12:41:57;;;;;;;9.35;0.90;;;13.40;99.90;;;;;;5052747;28;20017;-68
2023/01/06 12:44:34;;;;;;;7.85;0.77;;;13.40;99.90;;;;;;5071045;28;20668;-68
2023/01/06 12:47:10;;;;;;;10.45;0.93;;;13.40;99.90;;;;;;5059789;28;20060;-67
2023/01/06 12:49:44;;;;;;;4.13;0.98;;;13.50;99.90;;;;;;5058393;28;20036;-68
2023/01/06 12:52:27;;;;;;;9.07;1.30;;;13.60;99.90;;;;;;5051709;28;20630;-68
2023/01/06 12:54:56;;;;;;;15.80;1.13;;;13.60;99.90;;;;;;5061634;28;20040;-68
2023/01/06 12:57:34;;;;;;;5.03;0.90;;;13.70;99.90;;;;;;5064342;28;20136;-68
2023/01/06 13:00:15;;;;;;;9.63;1.13;;;13.70;99.90;;;;;;5064916;28;20040;-69
2023/01/06 13:02:54;;;;;;;5.72;1.35;;;13.70;99.90;;;;;;5069246;28;20025;-69
2023/01/06 13:05:58;;;;;;;9.90;1.15;;;13.70;99.90;;;;;;5059421;28;20013;-69